Time;durP1;ratioP1;P1;durP2;ratioP2;P2;SDS_P1;SDS_P2;PMS_P1;PMS_P2;Temp;Humidity;BMP_temperature;BMP_pressure;BME280_temperature;BME280_humidity;BME280_pressure;Samples;Min_cycle;Max_cycle;Signal;HPM_P1;HPM_P2
2023/10/23 00:00:52;;;;;;;;;;;11.00;99.90;;;;;;5041938;28;19959;-65
2023/10/23 00:03:22;;;;;;;;;;;10.90;99.90;;;;;;5044482;28;20336;-65
2023/10/23 00:05:50;;;;;;;;;;;10.90;99.90;;;;;;5041613;28;19963;-64
2023/10/23 00:08:18;;;;;;;;;;;10.80;99.90;;;;;;5040906;28;20013;-64
2023/10/23 00:10:46;;;;;;;;;;;10.70;99.90;;;;;;5044051;28;20382;-64
2023/10/23 00:13:13;;;;;;;;;;;10.60;99.90;;;;;;5044403;28;20011;-65
2023/10/23 00:15:42;;;;;;;;;;;10.60;99.90;;;;;;5042989;28;20597;-65
2023/10/23 00:18:10;;;;;;;;;;;10.70;99.90;;;;;;5040967;28;20497;-65
2023/10/23 00:20:39;;;;;;;;;;;10.70;99.90;;;;;;5042993;28;20009;-65
2023/10/23 00:23:07;;;;;;;;;;;10.70;99.90;;;;;;5044365;28;19971;-65
2023/10/23 00:25:35;;;;;;;;;;;10.70;99.90;;;;;;5044336;28;20029;-64
2023/10/23 00:28:03;;;;;;;;;;;10.70;99.90;;;;;;5040817;28;19959;-65
2023/10/23 00:30:34;;;;;;;;;;;10.70;99.90;;;;;;5042303;28;20017;-65
2023/10/23 00:33:02;;;;;;;;;;;10.70;99.90;;;;;;5036631;28;19959;-64
2023/10/23 00:35:31;;;;;;;;;;;10.70;99.90;;;;;;5044322;28;20008;-64
2023/10/23 00:38:00;;;;;;;;;;;10.60;99.90;;;;;;5043058;28;19966;-64
2023/10/23 00:40:29;;;;;;;;;;;10.60;99.90;;;;;;5045434;28;20334;-64
2023/10/23 00:42:57;;;;;;;;;;;10.50;99.90;;;;;;5047871;28;20120;-64
2023/10/23 00:45:25;;;;;;;;;;;10.50;99.90;;;;;;5047892;28;20475;-64
2023/10/23 00:47:53;;;;;;;;;;;10.40;99.90;;;;;;5045951;28;19967;-65
2023/10/23 00:50:20;;;;;;;;;;;10.40;99.90;;;;;;5044489;28;20010;-64
2023/10/23 00:52:48;;;;;;;;;;;10.30;99.90;;;;;;5047854;28;20085;-65
2023/10/23 00:55:17;;;;;;;;;;;10.40;99.90;;;;;;5048289;28;20009;-65
2023/10/23 00:57:45;;;;;;;;;;;10.40;99.90;;;;;;5046841;28;20437;-64
2023/10/23 01:00:14;;;;;;;;;;;10.40;99.90;;;;;;5044263;28;19970;-64
2023/10/23 01:02:42;;;;;;;;;;;10.30;99.90;;;;;;5047332;28;19966;-64
2023/10/23 01:05:10;;;;;;;;;;;10.40;99.90;;;;;;5047651;28;19970;-64
2023/10/23 01:07:37;;;;;;;;;;;10.30;99.90;;;;;;5047863;28;20013;-64
2023/10/23 01:10:06;;;;;;;;;;;10.30;99.90;;;;;;5049768;28;20326;-65
2023/10/23 01:12:35;;;;;;;;;;;10.20;99.90;;;;;;5046313;28;19963;-64
2023/10/23 01:15:04;;;;;;;;;;;10.20;99.90;;;;;;5047376;28;20445;-64
2023/10/23 01:17:31;;;;;;;;;;;10.20;99.90;;;;;;5053389;28;19971;-64
2023/10/23 01:19:59;;;;;;;;;;;10.20;99.90;;;;;;5044662;28;19974;-64
2023/10/23 01:22:27;;;;;;;;;;;10.20;99.90;;;;;;5045185;28;19971;-64
2023/10/23 01:24:56;;;;;;;;;;;10.20;99.90;;;;;;5047585;28;20029;-64
2023/10/23 01:27:25;;;;;;;;;;;10.20;99.90;;;;;;5047814;28;20006;-64
2023/10/23 01:29:53;;;;;;;;;;;10.20;99.90;;;;;;5045713;28;19966;-64
2023/10/23 01:32:21;;;;;;;;;;;10.20;99.90;;;;;;5044358;28;19967;-65
2023/10/23 01:34:48;;;;;;;;;;;10.20;99.90;;;;;;5047285;28;20009;-65
2023/10/23 01:37:16;;;;;;;;;;;10.00;99.90;;;;;;5047818;28;19989;-64
2023/10/23 01:39:44;;;;;;;;;;;10.10;99.90;;;;;;5047003;28;20017;-64
2023/10/23 01:42:12;;;;;;;;;;;10.10;99.90;;;;;;5044224;28;19963;-64
2023/10/23 01:44:41;;;;;;;;;;;10.00;99.90;;;;;;5046902;28;20646;-64
2023/10/23 01:47:09;;;;;;;;;;;10.00;99.90;;;;;;5039607;28;19963;-64
2023/10/23 01:49:36;;;;;;;;;;;10.00;99.90;;;;;;5046609;28;19962;-64
2023/10/23 01:52:04;;;;;;;;;;;10.00;99.90;;;;;;5044436;28;19975;-65
2023/10/23 01:54:32;;;;;;;;;;;10.00;99.90;;;;;;5045813;28;19963;-65
2023/10/23 01:57:00;;;;;;;;;;;10.00;99.90;;;;;;5047328;28;19965;-65
2023/10/23 01:59:28;;;;;;;;;;;10.00;99.90;;;;;;5046145;28;19967;-64
2023/10/23 02:01:57;;;;;;;;;;;10.10;99.90;;;;;;5043745;28;19974;-65
2023/10/23 02:04:25;;;;;;;;;;;10.00;99.90;;;;;;5044270;28;19962;-64
2023/10/23 02:06:52;;;;;;;;;;;10.10;99.90;;;;;;5047435;28;20032;-64
2023/10/23 02:09:21;;;;;;;;;;;10.00;99.90;;;;;;5047391;28;19959;-64
2023/10/23 02:11:49;;;;;;;;;;;10.00;99.90;;;;;;5046699;28;19958;-64
2023/10/23 02:14:16;;;;;;;;;;;10.00;99.90;;;;;;5043915;28;19963;-64
2023/10/23 02:16:44;;;;;;;;;;;9.90;99.90;;;;;;5047260;28;19963;-64
2023/10/23 02:19:13;;;;;;;;;;;9.90;99.90;;;;;;5039343;28;20025;-64
2023/10/23 02:21:49;;;;;;;;;;;9.90;99.90;;;;;;5047360;28;19985;-64
2023/10/23 02:24:17;;;;;;;;;;;9.80;99.90;;;;;;5047853;28;19963;-64
2023/10/23 02:26:44;;;;;;;;;;;9.70;99.90;;;;;;5047681;28;19958;-64
2023/10/23 02:29:12;;;;;;;;;;;9.70;99.90;;;;;;5039078;28;19963;-64
2023/10/23 02:31:40;;;;;;;;;;;9.80;99.90;;;;;;5047420;28;19970;-64
2023/10/23 02:34:08;;;;;;;;;;;9.70;99.90;;;;;;5044135;28;19959;-64
2023/10/23 02:36:37;;;;;;;;;;;9.70;99.90;;;;;;5046081;28;19958;-64
2023/10/23 02:39:06;;;;;;;;;;;9.80;99.90;;;;;;5051201;28;19962;-65
2023/10/23 02:41:33;;;;;;;;;;;9.90;99.90;;;;;;5047163;28;19959;-64
2023/10/23 02:44:01;;;;;;;;;;;9.90;99.90;;;;;;5045228;28;19959;-64
2023/10/23 02:46:29;;;;;;;;;;;9.90;99.90;;;;;;5044939;28;19959;-64
2023/10/23 02:48:57;;;;;;;;;;;9.80;99.90;;;;;;5047021;28;20006;-64
2023/10/23 02:51:25;;;;;;;;;;;9.90;99.90;;;;;;5047385;28;20649;-64
2023/10/23 02:53:54;;;;;;;;;;;9.80;99.90;;;;;;5046268;28;19962;-64
2023/10/23 02:56:22;;;;;;;;;;;9.80;99.90;;;;;;5043973;28;20013;-63
2023/10/23 02:58:49;;;;;;;;;;;9.80;99.90;;;;;;5046858;28;20531;-64
2023/10/23 03:01:19;;;;;;;;;;;9.80;99.90;;;;;;5047139;28;19985;-63
2023/10/23 03:03:47;;;;;;;;;;;9.70;99.90;;;;;;5048324;28;20024;-64
2023/10/23 03:06:15;;;;;;;;;;;9.70;99.90;;;;;;5047824;28;19959;-64
2023/10/23 03:08:43;;;;;;;;;;;9.80;99.90;;;;;;5038526;28;19969;-64
2023/10/23 03:11:12;;;;;;;;;;;9.80;99.90;;;;;;5047026;28;19959;-64
2023/10/23 03:13:40;;;;;;;;;;;9.80;99.90;;;;;;5040426;28;19968;-65
2023/10/23 03:16:08;;;;;;;;;;;9.80;99.90;;;;;;5043562;28;20379;-65
2023/10/23 03:18:36;;;;;;;;;;;9.80;99.90;;;;;;5045772;28;19965;-64
2023/10/23 03:21:03;;;;;;;;;;;9.90;99.90;;;;;;5046844;28;20414;-64
2023/10/23 03:23:31;;;;;;;;;;;9.90;99.90;;;;;;5047264;28;19959;-64
2023/10/23 03:26:00;;;;;;;;;;;9.90;99.90;;;;;;5045889;28;19958;-64
2023/10/23 03:28:29;;;;;;;;;;;9.90;99.90;;;;;;5044874;28;20009;-63
2023/10/23 03:30:57;;;;;;;;;;;9.80;99.90;;;;;;5046809;28;20024;-64
2023/10/23 03:33:25;;;;;;;;;;;9.80;99.90;;;;;;5047116;28;19965;-64
2023/10/23 03:35:53;;;;;;;;;;;9.80;99.90;;;;;;5046860;28;19959;-64
2023/10/23 03:38:20;;;;;;;;;;;9.70;99.90;;;;;;5044013;28;20077;-64
2023/10/23 03:40:55;;;;;;;;;;;9.70;99.90;;;;;;5047243;28;20313;-64
2023/10/23 03:43:23;;;;;;;;;;;9.60;99.90;;;;;;5039772;28;19966;-63
2023/10/23 03:45:52;;;;;;;;;;;9.60;99.90;;;;;;5047096;28;20440;-64
2023/10/23 03:48:20;;;;;;;;;;;9.60;99.90;;;;;;5043990;28;19966;-64
2023/10/23 03:50:48;;;;;;;;;;;9.60;99.90;;;;;;5047193;28;19966;-64
2023/10/23 03:53:16;;;;;;;;;;;9.50;99.90;;;;;;5047069;28;19962;-64
2023/10/23 03:55:44;;;;;;;;;;;9.50;99.90;;;;;;5047320;28;20009;-64
2023/10/23 03:58:11;;;;;;;;;;;9.50;99.90;;;;;;5044671;28;20028;-63
2023/10/23 04:00:39;;;;;;;;;;;9.50;99.90;;;;;;5046625;28;19966;-64
2023/10/23 04:03:10;;;;;;;;;;;9.50;99.90;;;;;;5047023;28;19963;-65
2023/10/23 04:05:40;;;;;;;;;;;9.40;99.90;;;;;;5070280;22;19958;-78
2023/10/23 04:08:07;;;;;;;;;;;9.30;99.90;;;;;;5048956;28;19989;-80
2023/10/23 04:10:35;;;;;;;;;;;9.30;99.90;;;;;;5058551;28;19958;-77
2023/10/23 04:13:03;;;;;;;;;;;9.20;99.90;;;;;;5065477;28;20017;-76
2023/10/23 04:15:31;;;;;;;;;;;9.10;99.90;;;;;;5066877;28;19966;-79
2023/10/23 04:17:58;;;;;;;;;;;9.20;99.90;;;;;;5040721;28;19967;-77
2023/10/23 04:20:29;;;;;;;;;;;9.00;99.90;;;;;;5025227;28;20328;-78
2023/10/23 04:22:56;;;;;;;;;;;8.90;99.90;;;;;;5025135;28;19966;-79
2023/10/23 04:25:24;;;;;;;;;;;8.90;99.90;;;;;;5025550;28;20437;-81
2023/10/23 04:27:52;;;;;;;;;;;8.80;99.90;;;;;;5024536;28;19974;-78
2023/10/23 04:30:20;;;;;;;;;;;8.60;99.90;;;;;;5024106;28;19959;-77
2023/10/23 04:32:48;;;;;;;;;;;8.50;99.90;;;;;;5026220;28;20029;-77
2023/10/23 04:35:16;;;;;;;;;;;8.50;99.90;;;;;;5024756;28;19963;-79
2023/10/23 04:37:45;;;;;;;;;;;8.50;99.90;;;;;;5024980;28;20368;-79
2023/10/23 04:40:13;;;;;;;;;;;8.50;99.90;;;;;;5025861;28;20003;-77
2023/10/23 04:42:41;;;;;;;;;;;8.60;99.90;;;;;;5025725;28;19970;-77
2023/10/23 04:45:09;;;;;;;;;;;8.70;99.90;;;;;;5024750;28;19967;-77
2023/10/23 04:47:36;;;;;;;;;;;8.70;99.90;;;;;;5024826;28;20030;-76
2023/10/23 04:50:04;;;;;;;;;;;8.60;99.90;;;;;;5024957;28;20064;-77
2023/10/23 04:52:36;;;;;;;;;;;8.60;99.90;;;;;;5024946;28;19967;-78
2023/10/23 04:55:07;;;;;;;;;;;8.60;99.90;;;;;;5025720;28;20029;-77
2023/10/23 04:57:35;;;;;;;;;;;8.50;99.90;;;;;;5025198;28;21448;-78
2023/10/23 05:00:04;;;;;;;;;;;8.50;99.90;;;;;;5024642;28;19990;-77
2023/10/23 05:02:31;;;;;;;;;;;8.50;99.90;;;;;;5024493;28;20045;-79
2023/10/23 05:04:59;;;;;;;;;;;8.50;99.90;;;;;;5024408;28;19963;-76
2023/10/23 05:07:27;;;;;;;;;;;8.50;99.90;;;;;;5024288;28;20541;-77
2023/10/23 05:09:55;;;;;;;;;;;8.60;99.90;;;;;;5023326;28;19966;-79
2023/10/23 05:12:24;;;;;;;;;;;8.60;99.90;;;;;;5024410;28;20064;-78
2023/10/23 05:14:52;;;;;;;;;;;8.60;99.90;;;;;;5024283;28;20646;-78
2023/10/23 05:17:21;;;;;;;;;;;8.80;99.90;;;;;;5023213;28;19959;-77
2023/10/23 05:19:49;;;;;;;;;;;8.80;99.90;;;;;;5024128;28;19959;-79
2023/10/23 05:22:16;;;;;;;;;;;8.80;99.90;;;;;;5024429;28;19967;-79
2023/10/23 05:24:45;;;;;;;;;;;8.80;99.90;;;;;;5022486;28;19978;-76
2023/10/23 05:27:13;;;;;;;;;;;8.80;99.90;;;;;;5024310;28;19973;-77
2023/10/23 05:29:42;;;;;;;;;;;8.90;99.90;;;;;;5024086;28;19963;-79
2023/10/23 05:32:10;;;;;;;;;;;8.90;99.90;;;;;;5023797;28;19971;-76
2023/10/23 05:34:38;;;;;;;;;;;9.00;99.90;;;;;;5023977;28;20009;-79
2023/10/23 05:37:05;;;;;;;;;;;9.10;99.90;;;;;;5024193;28;19967;-78
2023/10/23 05:39:33;;;;;;;;;;;9.20;99.90;;;;;;5024482;28;20461;-77
2023/10/23 05:42:02;;;;;;;;;;;9.30;99.90;;;;;;5023788;28;20431;-77
2023/10/23 05:44:30;;;;;;;;;;;9.40;99.90;;;;;;5023623;28;20049;-76
2023/10/23 05:46:59;;;;;;;;;;;9.40;99.90;;;;;;5023884;28;20060;-77
2023/10/23 05:49:27;;;;;;;;;;;9.40;99.90;;;;;;5023012;28;20041;-78
2023/10/23 05:51:55;;;;;;;;;;;9.30;99.90;;;;;;5023518;28;20022;-77
2023/10/23 05:54:25;;;;;;;;;;;9.30;99.90;;;;;;5024340;28;19971;-76
2023/10/23 05:56:52;;;;;;;;;;;9.20;99.90;;;;;;5024285;28;20845;-77
2023/10/23 05:59:20;;;;;;;;;;;9.10;99.90;;;;;;5023276;28;19970;-75
2023/10/23 06:01:48;;;;;;;;;;;9.00;99.90;;;;;;5024238;28;19959;-76
2023/10/23 06:04:17;;;;;;;;;;;9.00;99.90;;;;;;5024083;28;19979;-76
2023/10/23 06:06:46;;;;;;;;;;;9.00;99.90;;;;;;5023656;28;19973;-76
2023/10/23 06:09:14;;;;;;;;;;;8.90;99.90;;;;;;5023819;28;19967;-75
2023/10/23 06:11:42;;;;;;;;;;;8.90;99.90;;;;;;5023742;28;19967;-76
2023/10/23 06:14:09;;;;;;;;;;;8.80;99.90;;;;;;5023594;28;19971;-75
2023/10/23 06:16:37;;;;;;;;;;;8.80;99.90;;;;;;5023680;28;19971;-78
2023/10/23 06:19:05;;;;;;;;;;;8.80;99.90;;;;;;5023984;28;19967;-77
2023/10/23 06:21:35;;;;;;;;;;;8.80;99.90;;;;;;5024282;28;19967;-75
2023/10/23 06:24:03;;;;;;;;;;;8.80;99.90;;;;;;5024122;28;20002;-77
2023/10/23 06:26:31;;;;;;;;;;;8.80;99.90;;;;;;5023409;28;19967;-77
2023/10/23 06:28:59;;;;;;;;;;;8.90;99.90;;;;;;5024243;28;19974;-77
2023/10/23 06:31:27;;;;;;;;;;;8.80;99.90;;;;;;5031971;28;20052;-79
2023/10/23 06:33:54;;;;;;;;;;;8.90;99.90;;;;;;5052508;28;20359;-78
2023/10/23 06:36:22;;;;;;;;;;;8.90;99.90;;;;;;5052064;28;20437;-76
2023/10/23 06:38:51;;;;;;;;;;;8.90;99.90;;;;;;5052335;28;19958;-79
2023/10/23 06:41:19;;;;;;;;;;;8.90;99.90;;;;;;5052479;28;19962;-79
2023/10/23 06:43:47;;;;;;;;;;;9.00;99.90;;;;;;5052335;28;20435;-76
2023/10/23 06:46:15;;;;;;;;;;;9.00;99.90;;;;;;5051876;28;20049;-78
2023/10/23 06:48:45;;;;;;;;;;;9.10;99.90;;;;;;5052038;28;19959;-78
2023/10/23 06:51:14;;;;;;;;;;;9.10;99.90;;;;;;5051668;28;19963;-80
2023/10/23 06:53:42;;;;;;;;;;;9.10;99.90;;;;;;5051743;28;20012;-78
2023/10/23 06:56:12;;;;;;;;;;;9.10;99.90;;;;;;5051899;28;19963;-78
2023/10/23 06:58:40;;;;;;;;;;;9.10;99.90;;;;;;5036225;28;20012;-80
2023/10/23 07:01:08;;;;;;;;;;;9.10;99.90;;;;;;5051584;28;20016;-77
2023/10/23 07:03:36;;;;;;;;;;;9.20;99.90;;;;;;5051512;28;19994;-80
2023/10/23 07:06:05;;;;;;;;;;;9.20;99.90;;;;;;5051279;28;19967;-80
2023/10/23 07:08:33;;;;;;;;;;;9.20;99.90;;;;;;5051344;28;20049;-78
2023/10/23 07:11:03;;;;;;;;;;;9.30;99.90;;;;;;5052000;28;19962;-79
2023/10/23 07:13:32;;;;;;;;;;;9.30;99.90;;;;;;5051173;28;19963;-80
2023/10/23 07:16:03;;;;;;;;;;;9.40;99.90;;;;;;5051474;28;19981;-78
2023/10/23 07:18:31;;;;;;;;;;;9.50;99.90;;;;;;5051091;28;19963;-80
2023/10/23 07:20:59;;;;;;;;;;;9.40;99.90;;;;;;5051368;28;19958;-78
2023/10/23 07:23:28;;;;;;;;;;;9.40;99.90;;;;;;5050937;28;20016;-78
2023/10/23 07:26:00;;;;;;;;;;;9.30;99.90;;;;;;5051264;28;19959;-76
2023/10/23 07:28:28;;;;;;;;;;;9.40;99.90;;;;;;5051304;28;19963;-78
2023/10/23 07:30:57;;;;;;;;;;;9.50;99.90;;;;;;5051170;28;19958;-78
2023/10/23 07:33:25;;;;;;;;;;;9.60;99.90;;;;;;5051140;28;20037;-79
2023/10/23 07:36:00;;;;;;;;;;;9.70;99.90;;;;;;5050925;28;19959;-78
2023/10/23 07:38:28;;;;;;;;;;;9.70;99.90;;;;;;5051086;28;19963;-78
2023/10/23 07:40:56;;;;;;;;;;;9.90;99.90;;;;;;5050962;28;20487;-78
2023/10/23 07:43:23;;;;;;;;;;;9.90;99.90;;;;;;5050918;28;19963;-79
2023/10/23 07:45:51;;;;;;;;;;;10.10;99.90;;;;;;5051252;28;19959;-78
2023/10/23 07:48:37;;;;;;;;;;;10.10;99.90;;;;;;5054194;28;19966;-81
2023/10/23 07:51:05;;;;;;;;;;;10.30;99.90;;;;;;5055283;28;19962;-78
2023/10/23 07:53:35;;;;;;;;;;;10.40;99.90;;;;;;5054976;28;19963;-78
2023/10/23 07:56:04;;;;;;;;;;;10.50;99.90;;;;;;5055422;28;19966;-77
2023/10/23 07:58:32;;;;;;;;;;;10.70;99.90;;;;;;5054948;28;19963;-77
2023/10/23 08:01:04;;;;;;;;;;;10.80;99.90;;;;;;5055120;28;19963;-79
2023/10/23 08:03:33;;;;;;;;;;;10.80;99.90;;;;;;5054842;28;19970;-77
2023/10/23 08:06:03;;;;;;;;;;;11.10;99.90;;;;;;5054619;28;19965;-78
2023/10/23 08:08:32;;;;;;;;;;;11.20;99.90;;;;;;5054783;28;19970;-78
2023/10/23 08:10:59;;;;;;;;;;;11.40;99.90;;;;;;5054642;28;19958;-77
2023/10/23 08:13:27;;;;;;;;;;;11.40;99.90;;;;;;5054579;28;20032;-77
2023/10/23 08:15:55;;;;;;;;;;;11.30;99.90;;;;;;5054670;28;20433;-77
2023/10/23 08:18:27;;;;;;;;;;;11.30;99.90;;;;;;5054855;28;20348;-77
2023/10/23 08:21:14;;;;;;;;;;;11.40;99.90;;;;;;5054956;28;20028;-76
2023/10/23 08:23:42;;;;;;;;;;;11.60;99.90;;;;;;5054386;28;20066;-78
2023/10/23 08:26:11;;;;;;;;;;;11.60;99.90;;;;;;5054589;28;19920;-78
2023/10/23 08:28:40;;;;;;;;;;;11.40;99.90;;;;;;5054420;28;20391;-77
2023/10/23 08:31:27;;;;;;;;;;;11.20;99.90;;;;;;5054411;28;20003;-78
2023/10/23 08:34:06;;;;;;;;;;;11.10;99.90;;;;;;5054364;28;20398;-77
2023/10/23 08:36:36;;;;;;;;;;;11.10;99.90;;;;;;5054165;28;19925;-80
2023/10/23 08:39:04;;;;;;;;;;;11.30;99.90;;;;;;5054145;28;19932;-78
2023/10/23 08:41:32;;;;;;;;;;;11.60;99.90;;;;;;5054237;28;19921;-78
2023/10/23 08:44:00;;;;;;;;;;;11.80;99.90;;;;;;5054143;28;19928;-79
2023/10/23 08:46:31;;;;;;;;;;;11.90;99.90;;;;;;5054011;28;19930;-79
2023/10/23 08:49:00;;;;;;;;;;;12.10;99.90;;;;;;5054130;28;19928;-79
2023/10/23 08:51:27;;;;;;;;;;;12.40;99.90;;;;;;5053962;28;20152;-78
2023/10/23 08:54:01;;;;;;;;;;;12.50;99.90;;;;;;5054056;28;19921;-78
2023/10/23 08:56:41;;;;;;;;;;;12.60;99.90;;;;;;5053826;28;19920;-78
2023/10/23 08:59:10;;;;;;;;;;;12.80;99.90;;;;;;5053567;28;19930;-77
2023/10/23 09:01:38;;;;;;;;;;;13.00;99.90;;;;;;5053671;28;19960;-80
2023/10/23 09:04:07;;;;;;;;;;;13.10;99.90;;;;;;5053661;28;20023;-78
2023/10/23 09:06:36;;;;;;;;;;;13.30;99.90;;;;;;5053367;28;20004;-79
2023/10/23 09:09:06;;;;;;;;;;;13.50;99.90;;;;;;5054062;28;19922;-80
2023/10/23 09:11:38;;;;;;;;;;;13.70;99.90;;;;;;5053578;28;19921;-78
2023/10/23 09:14:05;;;;;;;;;;;13.80;99.90;;;;;;5053631;28;19921;-78
2023/10/23 09:16:33;;;;;;;;;;;13.80;99.90;;;;;;5053504;28;19967;-78
2023/10/23 09:19:02;;;;;;;;;;;13.70;99.90;;;;;;5054105;28;20303;-79
2023/10/23 09:21:30;;;;;;;;;;;13.70;99.90;;;;;;5054023;28;20319;-79
2023/10/23 09:24:00;;;;;;;;;;;13.60;99.90;;;;;;5054091;28;19920;-78
2023/10/23 09:26:30;;;;;;;;;;;13.50;99.90;;;;;;5053128;28;19921;-79
2023/10/23 09:28:57;;;;;;;;;;;13.30;99.90;;;;;;5053660;28;19936;-78
2023/10/23 09:31:25;;;;;;;;;;;13.10;99.90;;;;;;5053392;28;19921;-77
2023/10/23 09:33:53;;;;;;;;;;;13.10;99.90;;;;;;5053169;28;20306;-78
2023/10/23 09:36:21;;;;;;;;;;;13.10;99.90;;;;;;5053373;28;19924;-76
2023/10/23 09:38:56;;;;;;;;;;;13.20;99.90;;;;;;5052682;28;19920;-78
2023/10/23 09:41:23;;;;;;;;;;;13.30;99.90;;;;;;5053322;28;20342;-77
2023/10/23 09:43:53;;;;;;;;;;;13.40;99.90;;;;;;5037047;28;19921;-76
2023/10/23 09:46:21;;;;;;;;;;;13.30;99.90;;;;;;5052837;28;20306;-78
2023/10/23 09:48:49;;;;;;;;;;;13.30;99.90;;;;;;5052649;28;20373;-77
2023/10/23 09:51:18;;;;;;;;;;;13.10;99.90;;;;;;5052905;28;19920;-77
2023/10/23 09:53:48;;;;;;;;;;;13.00;99.90;;;;;;5052655;28;19924;-78
2023/10/23 09:56:20;;;;;;;;;;;13.00;99.90;;;;;;5052767;28;20273;-77
2023/10/23 09:58:48;;;;;;;;;;;12.90;99.90;;;;;;5052728;28;20318;-78
2023/10/23 10:01:18;;;;;;;;;;;12.80;99.90;;;;;;5052786;28;19971;-78
2023/10/23 10:03:46;;;;;;;;;;;12.90;99.90;;;;;;5052469;28;20385;-78
2023/10/23 10:06:17;;;;;;;;;;;12.80;99.90;;;;;;5052856;28;19921;-77
2023/10/23 10:08:49;;;;;;;;;;;12.80;99.90;;;;;;5052394;28;19967;-77
2023/10/23 10:11:17;;;;;;;;;;;12.80;99.90;;;;;;5052059;28;19920;-78
2023/10/23 10:13:47;;;;;;;;;;;12.80;99.90;;;;;;5052275;28;19921;-78
2023/10/23 10:16:15;;;;;;;;;;;12.80;99.90;;;;;;5052272;28;19987;-77
2023/10/23 10:18:44;;;;;;;;;;;12.80;99.90;;;;;;5052408;28;19921;-78
2023/10/23 10:21:13;;;;;;;;;;;12.80;99.90;;;;;;5052427;28;19925;-78
2023/10/23 10:23:42;;;;;;;;;;;12.80;99.90;;;;;;5052046;28;19974;-79
2023/10/23 10:26:10;;;;;;;;;;;12.90;99.90;;;;;;5052176;28;19921;-77
2023/10/23 10:28:38;;;;;;;;;;;12.80;99.90;;;;;;5052100;28;19920;-77
2023/10/23 10:31:06;;;;;;;;;;;13.00;99.90;;;;;;5052251;28;19924;-78
2023/10/23 10:33:38;;;;;;;;;;;13.00;99.90;;;;;;5051940;28;20019;-77
2023/10/23 10:36:28;;;;;;;;;;;13.00;99.90;;;;;;5052495;28;20003;-78
2023/10/23 10:39:16;;;;;;;;;;;13.10;99.90;;;;;;5040805;28;19920;-78
2023/10/23 10:41:45;;;;;;;;;;;13.20;99.90;;;;;;5051829;28;19927;-78
2023/10/23 10:44:13;;;;;;;;;;;13.20;99.90;;;;;;5052001;28;19921;-78
2023/10/23 10:46:41;;;;;;;;;;;13.30;99.90;;;;;;5051576;28;19924;-77
2023/10/23 10:49:10;;;;;;;;;;;13.30;99.90;;;;;;5051759;28;19927;-77
2023/10/23 10:51:39;;;;;;;;;;;13.40;99.90;;;;;;5051459;28;19925;-78
2023/10/23 10:54:07;;;;;;;;;;;13.50;99.90;;;;;;5051781;28;20425;-78
2023/10/23 10:56:35;;;;;;;;;;;13.50;99.90;;;;;;5051680;28;19921;-77
2023/10/23 10:59:04;;;;;;;;;;;13.50;99.90;;;;;;5051528;28;20349;-75
2023/10/23 11:01:32;;;;;;;;;;;13.50;99.90;;;;;;5051780;28;19921;-77
2023/10/23 11:04:01;;;;;;;;;;;13.50;99.90;;;;;;5043760;28;19931;-78
2023/10/23 11:06:30;;;;;;;;;;;13.50;99.90;;;;;;5051604;28;19970;-78
2023/10/23 11:08:59;;;;;;;;;;;13.60;99.90;;;;;;5051456;28;19925;-78
2023/10/23 11:11:27;;;;;;;;;;;13.50;99.90;;;;;;5051715;28;19921;-77
2023/10/23 11:13:55;;;;;;;;;;;13.50;99.90;;;;;;5043066;28;19979;-77
2023/10/23 11:16:23;;;;;;;;;;;13.50;99.90;;;;;;5051358;28;19924;-77
2023/10/23 11:18:52;;;;;;;;;;;13.60;99.90;;;;;;5050895;28;19925;-80
2023/10/23 11:21:23;;;;;;;;;;;13.80;99.90;;;;;;5050938;28;19921;-77
2023/10/23 11:23:54;;;;;;;;;;;13.80;99.90;;;;;;5050953;28;19927;-77
2023/10/23 11:26:23;;;;;;;;;;;13.90;99.90;;;;;;5051228;28;19961;-78
2023/10/23 11:28:51;;;;;;;;;;;14.00;99.90;;;;;;5051008;28;20296;-77
2023/10/23 11:31:21;;;;;;;;;;;14.00;99.90;;;;;;5051195;28;19986;-77
2023/10/23 11:33:51;;;;;;;;;;;14.10;99.90;;;;;;5051304;28;19920;-77
2023/10/23 11:36:20;;;;;;;;;;;14.20;99.90;;;;;;5051054;28;19921;-77
2023/10/23 11:38:49;;;;;;;;;;;14.20;99.90;;;;;;5050836;28;20395;-77
2023/10/23 11:41:16;;;;;;;;;;;14.40;99.90;;;;;;5051200;28;19927;-77
2023/10/23 11:43:45;;;;;;;;;;;14.40;99.90;;;;;;5050757;28;19924;-78
2023/10/23 11:46:13;;;;;;;;;;;14.40;99.90;;;;;;5050983;28;20371;-77
2023/10/23 11:48:41;;;;;;;;;;;14.50;99.90;;;;;;5050607;28;20295;-78
2023/10/23 11:51:09;;;;;;;;;;;14.50;99.90;;;;;;5051115;28;19920;-78
2023/10/23 11:53:37;;;;;;;;;;;14.50;99.90;;;;;;5051087;28;20354;-77
2023/10/23 11:56:05;;;;;;;;;;;14.70;99.90;;;;;;5050994;28;20386;-78
2023/10/23 11:58:33;;;;;;;;;;;14.80;99.90;;;;;;5051030;28;19931;-78
2023/10/23 12:01:04;;;;;;;;;;;14.90;99.90;;;;;;5050918;28;20203;-77
2023/10/23 12:03:32;;;;;;;;;;;15.00;99.90;;;;;;5051233;28;20352;-77
2023/10/23 12:06:00;;;;;;;;;;;15.00;99.90;;;;;;5050347;28;19921;-77
2023/10/23 12:08:28;;;;;;;;;;;14.90;99.90;;;;;;5050907;28;19920;-78
2023/10/23 12:10:55;;;;;;;;;;;14.90;99.90;;;;;;5050499;28;19924;-77
2023/10/23 12:13:23;;;;;;;;;;;14.80;99.90;;;;;;5050856;28;20265;-78
2023/10/23 12:15:52;;;;;;;;;;;14.70;99.90;;;;;;5050555;28;20089;-78
2023/10/23 12:18:23;;;;;;;;;;;14.60;99.90;;;;;;5050958;28;20331;-77
2023/10/23 12:20:51;;;;;;;;;;;14.70;99.90;;;;;;5050374;28;19920;-77
2023/10/23 12:23:19;;;;;;;;;;;14.60;99.90;;;;;;5051035;28;19921;-78
2023/10/23 12:25:47;;;;;;;;;;;14.60;99.90;;;;;;5050463;28;19928;-77
2023/10/23 12:28:15;;;;;;;;;;;14.70;99.90;;;;;;5050848;28;19928;-78
2023/10/23 12:30:42;;;;;;;;;;;14.70;99.90;;;;;;5051057;28;20264;-75
2023/10/23 12:33:10;;;;;;;;;;;14.70;99.90;;;;;;5051402;28;19921;-76
2023/10/23 12:35:53;;;;;;;;;;;14.60;99.90;;;;;;5054026;28;19920;-77
2023/10/23 12:38:21;;;;;;;;;;;14.60;99.90;;;;;;5054493;28;19921;-77
2023/10/23 12:40:49;;;;;;;;;;;14.50;99.90;;;;;;5054444;28;20012;-77
2023/10/23 12:43:17;;;;;;;;;;;14.50;99.90;;;;;;5054249;28;19921;-77
2023/10/23 12:45:46;;;;;;;;;;;14.50;99.90;;;;;;5053911;28;20298;-77
2023/10/23 12:48:14;;;;;;;;;;;14.40;99.90;;;;;;5053968;28;19921;-77
2023/10/23 12:50:42;;;;;;;;;;;14.20;99.90;;;;;;5053926;28;20011;-77
2023/10/23 12:53:12;;;;;;;;;;;14.20;99.90;;;;;;5054326;28;19971;-77
2023/10/23 12:55:40;;;;;;;;;;;14.20;99.90;;;;;;5053916;28;20383;-77
2023/10/23 12:58:07;;;;;;;;;;;14.20;99.90;;;;;;5053720;28;19921;-77
2023/10/23 13:00:36;;;;;;;;;;;14.10;99.90;;;;;;5053722;28;20383;-78
2023/10/23 13:03:04;;;;;;;;;;;14.10;99.90;;;;;;5053918;28;19920;-76
2023/10/23 13:05:32;;;;;;;;;;;14.10;99.90;;;;;;5053486;28;19954;-77
2023/10/23 13:08:00;;;;;;;;;;;14.10;99.90;;;;;;5053708;28;19996;-77
2023/10/23 13:10:29;;;;;;;;;;;14.20;99.90;;;;;;5053860;28;19924;-78
2023/10/23 13:12:57;;;;;;;;;;;14.10;99.90;;;;;;5054273;28;19927;-77
2023/10/23 13:15:24;;;;;;;;;;;14.00;99.90;;;;;;5053454;28;19924;-77
2023/10/23 13:17:53;;;;;;;;;;;14.00;99.90;;;;;;5053372;28;19924;-77
2023/10/23 13:20:21;;;;;;;;;;;14.00;99.90;;;;;;5053549;28;20380;-80
2023/10/23 13:23:09;;;;;;;;;;;14.00;99.90;;;;;;5053470;28;20365;-76
2023/10/23 13:25:40;;;;;;;;;;;14.00;99.90;;;;;;5053269;28;19921;-77
2023/10/23 13:28:08;;;;;;;;;;;14.00;99.90;;;;;;5053165;28;19966;-78
2023/10/23 13:30:36;;;;;;;;;;;14.00;99.90;;;;;;5053172;28;19931;-79
2023/10/23 13:33:04;;;;;;;;;;;13.90;99.90;;;;;;5053043;28;19924;-76
2023/10/23 13:35:32;;;;;;;;;;;13.80;99.90;;;;;;5053255;28;19951;-78
2023/10/23 13:38:00;;;;;;;;;;;13.80;99.90;;;;;;5052935;28;20303;-77
2023/10/23 13:40:27;;;;;;;;;;;14.30;99.90;;;;;;5052956;28;19921;-78
2023/10/23 13:42:57;;;;;;;;;;;13.80;99.90;;;;;;5052921;28;19974;-77
2023/10/23 13:45:25;;;;;;;;;;;13.80;99.90;;;;;;5052067;28;20287;-79
2023/10/23 13:47:52;;;;;;;;;;;13.80;99.90;;;;;;5052748;28;19928;-77
2023/10/23 13:50:24;;;;;;;;;;;13.80;99.90;;;;;;5052886;28;20007;-78
2023/10/23 13:52:52;;;;;;;;;;;13.80;99.90;;;;;;5052704;28;19921;-77
2023/10/23 13:55:20;;;;;;;;;;;13.90;99.90;;;;;;5052917;28;20294;-77
2023/10/23 13:57:48;;;;;;;;;;;13.90;99.90;;;;;;5052999;28;19921;-77
2023/10/23 14:00:17;;;;;;;;;;;13.80;99.90;;;;;;5044802;28;19952;-77
2023/10/23 14:02:45;;;;;;;;;;;13.90;99.90;;;;;;5052592;28;19924;-79
2023/10/23 14:05:13;;;;;;;;;;;13.80;99.90;;;;;;5052526;28;20347;-75
2023/10/23 14:07:41;;;;;;;;;;;13.80;99.90;;;;;;5052414;28;20353;-77
2023/10/23 14:10:09;;;;;;;;;;;13.80;99.90;;;;;;5052313;28;19920;-77
2023/10/23 14:12:37;;;;;;;;;;;13.80;99.90;;;;;;5052639;28;20311;-77
2023/10/23 14:15:05;;;;;;;;;;;13.80;99.90;;;;;;5052342;28;19951;-78
2023/10/23 14:17:37;;;;;;;;;;;13.80;99.90;;;;;;5052471;28;19924;-77
2023/10/23 14:20:05;;;;;;;;;;;13.80;99.90;;;;;;5052066;28;20019;-78
2023/10/23 14:22:33;;;;;;;;;;;13.80;99.90;;;;;;5052477;28;20338;-78
2023/10/23 14:25:01;;;;;;;;;;;13.80;99.90;;;;;;5052126;28;19925;-78
2023/10/23 14:27:29;;;;;;;;;;;13.80;99.90;;;;;;5052189;28;20135;-79
2023/10/23 14:29:56;;;;;;;;;;;13.80;99.90;;;;;;5051984;28;19920;-77